sensor_id;sensor_type;location;lat;lon;timestamp;temperature;humidity
73121;DHT22;61307;49.628;-1.624;2023-02-21T00:02:33;17.20;45.90
73121;DHT22;61307;49.628;-1.624;2023-02-21T00:05:18;17.20;45.80
73121;DHT22;61307;49.628;-1.624;2023-02-21T00:08:04;17.20;45.90
73121;DHT22;61307;49.628;-1.624;2023-02-21T00:10:48;17.10;45.80
73121;DHT22;61307;49.628;-1.624;2023-02-21T00:13:35;17.20;45.80
73121;DHT22;61307;49.628;-1.624;2023-02-21T00:16:19;17.10;45.80
73121;DHT22;61307;49.628;-1.624;2023-02-21T00:19:04;17.10;45.80
73121;DHT22;61307;49.628;-1.624;2023-02-21T00:21:49;17.10;45.80
73121;DHT22;61307;49.628;-1.624;2023-02-21T00:24:35;17.10;45.80
73121;DHT22;61307;49.628;-1.624;2023-02-21T00:27:19;17.10;45.80
73121;DHT22;61307;49.628;-1.624;2023-02-21T00:30:05;17.10;45.80
73121;DHT22;61307;49.628;-1.624;2023-02-21T00:32:49;17.10;45.80
73121;DHT22;61307;49.628;-1.624;2023-02-21T00:35:34;17.10;45.80
73121;DHT22;61307;49.628;-1.624;2023-02-21T00:38:18;17.10;45.80
73121;DHT22;61307;49.628;-1.624;2023-02-21T00:41:05;17.10;45.80
73121;DHT22;61307;49.628;-1.624;2023-02-21T00:43:49;17.10;45.80
73121;DHT22;61307;49.628;-1.624;2023-02-21T00:46:34;17.10;45.80
73121;DHT22;61307;49.628;-1.624;2023-02-21T00:49:19;17.00;45.70
73121;DHT22;61307;49.628;-1.624;2023-02-21T00:52:04;17.00;45.70
73121;DHT22;61307;49.628;-1.624;2023-02-21T00:54:48;17.10;45.80
73121;DHT22;61307;49.628;-1.624;2023-02-21T00:57:34;17.00;45.80
73121;DHT22;61307;49.628;-1.624;2023-02-21T01:00:21;17.10;45.80
73121;DHT22;61307;49.628;-1.624;2023-02-21T01:03:06;17.00;45.70
73121;DHT22;61307;49.628;-1.624;2023-02-21T01:05:51;17.00;45.80
73121;DHT22;61307;49.628;-1.624;2023-02-21T01:08:40;17.00;45.70
73121;DHT22;61307;49.628;-1.624;2023-02-21T01:11:25;17.00;45.70
73121;DHT22;61307;49.628;-1.624;2023-02-21T01:14:10;17.00;45.70
73121;DHT22;61307;49.628;-1.624;2023-02-21T01:16:55;17.00;45.70
73121;DHT22;61307;49.628;-1.624;2023-02-21T01:19:40;17.00;45.70
73121;DHT22;61307;49.628;-1.624;2023-02-21T01:22:25;17.00;45.70
73121;DHT22;61307;49.628;-1.624;2023-02-21T01:25:09;17.00;45.70
73121;DHT22;61307;49.628;-1.624;2023-02-21T01:27:54;17.00;45.70
73121;DHT22;61307;49.628;-1.624;2023-02-21T01:30:40;17.00;45.80
73121;DHT22;61307;49.628;-1.624;2023-02-21T01:33:24;17.00;45.70
73121;DHT22;61307;49.628;-1.624;2023-02-21T01:36:09;17.00;45.70
73121;DHT22;61307;49.628;-1.624;2023-02-21T01:38:54;17.00;45.70
73121;DHT22;61307;49.628;-1.624;2023-02-21T01:41:38;17.00;45.70
73121;DHT22;61307;49.628;-1.624;2023-02-21T01:44:35;16.90;45.60
73121;DHT22;61307;49.628;-1.624;2023-02-21T01:47:22;16.90;45.60
73121;DHT22;61307;49.628;-1.624;2023-02-21T01:50:11;16.90;45.60
73121;DHT22;61307;49.628;-1.624;2023-02-21T01:52:57;16.90;45.70
73121;DHT22;61307;49.628;-1.624;2023-02-21T01:55:43;16.90;45.60
73121;DHT22;61307;49.628;-1.624;2023-02-21T01:58:29;16.90;45.60
73121;DHT22;61307;49.628;-1.624;2023-02-21T02:01:21;16.90;45.70
73121;DHT22;61307;49.628;-1.624;2023-02-21T02:04:08;16.90;45.60
73121;DHT22;61307;49.628;-1.624;2023-02-21T02:06:52;16.90;45.60
73121;DHT22;61307;49.628;-1.624;2023-02-21T02:09:37;16.90;45.60
73121;DHT22;61307;49.628;-1.624;2023-02-21T02:15:42;16.90;45.60
73121;DHT22;61307;49.628;-1.624;2023-02-21T02:18:35;16.90;45.70
73121;DHT22;61307;49.628;-1.624;2023-02-21T02:21:37;16.90;45.60
73121;DHT22;61307;49.628;-1.624;2023-02-21T02:24:36;16.90;45.60
73121;DHT22;61307;49.628;-1.624;2023-02-21T02:27:43;16.90;45.70
73121;DHT22;61307;49.628;-1.624;2023-02-21T02:30:50;16.90;45.60
73121;DHT22;61307;49.628;-1.624;2023-02-21T02:36:33;16.90;45.60
73121;DHT22;61307;49.628;-1.624;2023-02-21T02:39:08;16.90;45.60
73121;DHT22;61307;49.628;-1.624;2023-02-21T02:41:46;16.90;45.60
73121;DHT22;61307;49.628;-1.624;2023-02-21T02:44:20;16.80;45.50
73121;DHT22;61307;49.628;-1.624;2023-02-21T02:46:50;16.90;45.50
73121;DHT22;61307;49.628;-1.624;2023-02-21T02:49:20;16.90;45.60
73121;DHT22;61307;49.628;-1.624;2023-02-21T02:51:50;16.80;45.50
73121;DHT22;61307;49.628;-1.624;2023-02-21T02:54:18;16.90;45.60
73121;DHT22;61307;49.628;-1.624;2023-02-21T02:56:46;16.90;45.50
73121;DHT22;61307;49.628;-1.624;2023-02-21T02:59:16;16.80;45.50
73121;DHT22;61307;49.628;-1.624;2023-02-21T03:05:04;16.80;45.50
73121;DHT22;61307;49.628;-1.624;2023-02-21T03:07:39;16.80;45.50
73121;DHT22;61307;49.628;-1.624;2023-02-21T03:10:14;16.80;45.50
73121;DHT22;61307;49.628;-1.624;2023-02-21T03:12:46;16.80;45.50
73121;DHT22;61307;49.628;-1.624;2023-02-21T03:15:17;16.80;45.60
73121;DHT22;61307;49.628;-1.624;2023-02-21T03:17:50;16.80;45.60
73121;DHT22;61307;49.628;-1.624;2023-02-21T03:20:17;16.80;45.60
73121;DHT22;61307;49.628;-1.624;2023-02-21T03:22:48;16.80;45.50
73121;DHT22;61307;49.628;-1.624;2023-02-21T03:25:16;16.80;45.50
73121;DHT22;61307;49.628;-1.624;2023-02-21T03:27:44;16.80;45.50
73121;DHT22;61307;49.628;-1.624;2023-02-21T03:30:12;16.80;45.50
73121;DHT22;61307;49.628;-1.624;2023-02-21T03:32:42;16.80;45.50
73121;DHT22;61307;49.628;-1.624;2023-02-21T03:35:11;16.70;45.40
73121;DHT22;61307;49.628;-1.624;2023-02-21T03:37:40;16.80;45.50
73121;DHT22;61307;49.628;-1.624;2023-02-21T03:40:13;16.80;45.50
73121;DHT22;61307;49.628;-1.624;2023-02-21T03:42:41;16.80;45.50
73121;DHT22;61307;49.628;-1.624;2023-02-21T03:45:08;16.80;45.50
73121;DHT22;61307;49.628;-1.624;2023-02-21T03:47:35;16.80;45.50
73121;DHT22;61307;49.628;-1.624;2023-02-21T03:50:03;16.80;45.50
73121;DHT22;61307;49.628;-1.624;2023-02-21T03:52:30;16.80;45.50
73121;DHT22;61307;49.628;-1.624;2023-02-21T03:54:58;16.80;45.50
73121;DHT22;61307;49.628;-1.624;2023-02-21T03:57:26;16.80;45.50
73121;DHT22;61307;49.628;-1.624;2023-02-21T03:59:53;16.70;45.40
73121;DHT22;61307;49.628;-1.624;2023-02-21T04:02:20;16.70;45.40
73121;DHT22;61307;49.628;-1.624;2023-02-21T04:04:47;16.70;45.40
73121;DHT22;61307;49.628;-1.624;2023-02-21T04:07:15;16.70;45.40
73121;DHT22;61307;49.628;-1.624;2023-02-21T04:09:42;16.70;45.40
73121;DHT22;61307;49.628;-1.624;2023-02-21T04:12:10;16.80;45.50
73121;DHT22;61307;49.628;-1.624;2023-02-21T04:14:39;16.80;45.50
73121;DHT22;61307;49.628;-1.624;2023-02-21T04:17:06;16.70;45.40
73121;DHT22;61307;49.628;-1.624;2023-02-21T04:19:33;16.70;45.50
73121;DHT22;61307;49.628;-1.624;2023-02-21T04:22:00;16.70;45.50
73121;DHT22;61307;49.628;-1.624;2023-02-21T04:24:27;16.80;45.50
73121;DHT22;61307;49.628;-1.624;2023-02-21T04:26:54;16.70;45.50
73121;DHT22;61307;49.628;-1.624;2023-02-21T04:29:21;16.70;45.50
73121;DHT22;61307;49.628;-1.624;2023-02-21T04:31:50;16.70;45.50
73121;DHT22;61307;49.628;-1.624;2023-02-21T04:34:17;16.70;45.50
73121;DHT22;61307;49.628;-1.624;2023-02-21T04:36:44;16.70;45.50
73121;DHT22;61307;49.628;-1.624;2023-02-21T04:39:11;16.70;45.50
73121;DHT22;61307;49.628;-1.624;2023-02-21T04:41:38;16.70;45.50
73121;DHT22;61307;49.628;-1.624;2023-02-21T04:44:06;16.70;45.50
73121;DHT22;61307;49.628;-1.624;2023-02-21T04:46:33;16.70;45.50
73121;DHT22;61307;49.628;-1.624;2023-02-21T04:49:02;16.70;45.50
73121;DHT22;61307;49.628;-1.624;2023-02-21T04:51:29;16.70;45.50
73121;DHT22;61307;49.628;-1.624;2023-02-21T04:53:56;16.70;45.50
73121;DHT22;61307;49.628;-1.624;2023-02-21T04:56:24;16.70;45.50
73121;DHT22;61307;49.628;-1.624;2023-02-21T04:58:53;16.70;45.50
73121;DHT22;61307;49.628;-1.624;2023-02-21T05:01:21;16.70;45.50
73121;DHT22;61307;49.628;-1.624;2023-02-21T05:03:48;16.70;45.50
73121;DHT22;61307;49.628;-1.624;2023-02-21T05:06:22;16.70;45.50
73121;DHT22;61307;49.628;-1.624;2023-02-21T05:08:49;16.60;45.40
73121;DHT22;61307;49.628;-1.624;2023-02-21T05:11:18;16.70;45.50
73121;DHT22;61307;49.628;-1.624;2023-02-21T05:13:45;16.70;45.60
73121;DHT22;61307;49.628;-1.624;2023-02-21T05:16:13;16.70;45.50
73121;DHT22;61307;49.628;-1.624;2023-02-21T05:18:41;16.70;45.50
73121;DHT22;61307;49.628;-1.624;2023-02-21T05:21:08;16.70;45.50
73121;DHT22;61307;49.628;-1.624;2023-02-21T05:23:38;16.70;45.50
73121;DHT22;61307;49.628;-1.624;2023-02-21T05:26:07;16.70;45.50
73121;DHT22;61307;49.628;-1.624;2023-02-21T05:28:35;16.70;45.50
73121;DHT22;61307;49.628;-1.624;2023-02-21T05:31:02;16.70;45.50
73121;DHT22;61307;49.628;-1.624;2023-02-21T05:33:29;16.70;45.50
73121;DHT22;61307;49.628;-1.624;2023-02-21T05:35:57;16.70;45.50
73121;DHT22;61307;49.628;-1.624;2023-02-21T05:38:25;16.70;45.50
73121;DHT22;61307;49.628;-1.624;2023-02-21T05:40:54;16.70;45.60
73121;DHT22;61307;49.628;-1.624;2023-02-21T05:43:21;16.70;45.50
73121;DHT22;61307;49.628;-1.624;2023-02-21T05:45:48;16.70;45.60
73121;DHT22;61307;49.628;-1.624;2023-02-21T05:48:15;16.60;45.50
73121;DHT22;61307;49.628;-1.624;2023-02-21T05:50:42;16.70;45.60
73121;DHT22;61307;49.628;-1.624;2023-02-21T05:53:10;16.70;45.50
73121;DHT22;61307;49.628;-1.624;2023-02-21T05:55:37;16.70;45.50
73121;DHT22;61307;49.628;-1.624;2023-02-21T05:58:05;16.80;45.50
73121;DHT22;61307;49.628;-1.624;2023-02-21T06:00:32;16.80;45.50
73121;DHT22;61307;49.628;-1.624;2023-02-21T06:02:59;16.80;45.40
73121;DHT22;61307;49.628;-1.624;2023-02-21T06:05:26;16.90;45.50
73121;DHT22;61307;49.628;-1.624;2023-02-21T06:07:53;16.90;45.40
73121;DHT22;61307;49.628;-1.624;2023-02-21T06:10:21;17.00;45.40
73121;DHT22;61307;49.628;-1.624;2023-02-21T06:12:48;17.00;45.40
73121;DHT22;61307;49.628;-1.624;2023-02-21T06:15:17;17.10;45.40
73121;DHT22;61307;49.628;-1.624;2023-02-21T06:17:44;17.10;45.40
73121;DHT22;61307;49.628;-1.624;2023-02-21T06:20:13;17.10;46.00
73121;DHT22;61307;49.628;-1.624;2023-02-21T06:22:41;17.20;45.20
73121;DHT22;61307;49.628;-1.624;2023-02-21T06:25:09;17.20;45.40
73121;DHT22;61307;49.628;-1.624;2023-02-21T06:27:36;17.10;45.40
73121;DHT22;61307;49.628;-1.624;2023-02-21T06:30:04;17.00;45.40
73121;DHT22;61307;49.628;-1.624;2023-02-21T06:32:33;16.90;45.40
73121;DHT22;61307;49.628;-1.624;2023-02-21T06:35:01;16.80;45.30
73121;DHT22;61307;49.628;-1.624;2023-02-21T06:37:28;16.70;45.30
73121;DHT22;61307;49.628;-1.624;2023-02-21T06:39:55;16.70;45.30
73121;DHT22;61307;49.628;-1.624;2023-02-21T06:42:23;16.60;45.30
73121;DHT22;61307;49.628;-1.624;2023-02-21T06:44:50;16.60;45.30
73121;DHT22;61307;49.628;-1.624;2023-02-21T06:47:17;16.50;45.20
73121;DHT22;61307;49.628;-1.624;2023-02-21T06:49:46;16.50;45.30
73121;DHT22;61307;49.628;-1.624;2023-02-21T06:52:14;16.50;45.30
73121;DHT22;61307;49.628;-1.624;2023-02-21T06:54:41;16.40;45.20
73121;DHT22;61307;49.628;-1.624;2023-02-21T06:57:08;16.40;45.20
73121;DHT22;61307;49.628;-1.624;2023-02-21T06:59:35;16.40;45.20
73121;DHT22;61307;49.628;-1.624;2023-02-21T07:02:02;16.40;45.20
73121;DHT22;61307;49.628;-1.624;2023-02-21T07:04:29;16.40;45.20
73121;DHT22;61307;49.628;-1.624;2023-02-21T07:06:58;16.40;45.20
73121;DHT22;61307;49.628;-1.624;2023-02-21T07:09:25;16.30;45.30
73121;DHT22;61307;49.628;-1.624;2023-02-21T07:11:52;16.40;45.50
73121;DHT22;61307;49.628;-1.624;2023-02-21T07:14:19;16.40;45.40
73121;DHT22;61307;49.628;-1.624;2023-02-21T07:16:46;16.50;45.40
73121;DHT22;61307;49.628;-1.624;2023-02-21T07:19:15;16.60;45.30
73121;DHT22;61307;49.628;-1.624;2023-02-21T07:21:42;16.70;45.40
73121;DHT22;61307;49.628;-1.624;2023-02-21T07:24:12;16.80;45.30
73121;DHT22;61307;49.628;-1.624;2023-02-21T07:26:39;16.80;45.20
73121;DHT22;61307;49.628;-1.624;2023-02-21T07:29:06;16.90;45.20
73121;DHT22;61307;49.628;-1.624;2023-02-21T07:31:34;17.00;45.20
73121;DHT22;61307;49.628;-1.624;2023-02-21T07:34:01;17.00;45.10
73121;DHT22;61307;49.628;-1.624;2023-02-21T07:36:28;17.10;45.10
73121;DHT22;61307;49.628;-1.624;2023-02-21T07:38:55;17.10;45.00
73121;DHT22;61307;49.628;-1.624;2023-02-21T07:41:24;17.20;45.10
73121;DHT22;61307;49.628;-1.624;2023-02-21T07:43:51;17.20;45.00
73121;DHT22;61307;49.628;-1.624;2023-02-21T07:46:18;17.20;44.90
73121;DHT22;61307;49.628;-1.624;2023-02-21T07:48:46;17.30;45.00
73121;DHT22;61307;49.628;-1.624;2023-02-21T07:51:13;17.30;44.90
73121;DHT22;61307;49.628;-1.624;2023-02-21T07:53:40;17.40;45.00
73121;DHT22;61307;49.628;-1.624;2023-02-21T07:56:07;17.50;44.90
73121;DHT22;61307;49.628;-1.624;2023-02-21T07:58:36;17.50;44.80
73121;DHT22;61307;49.628;-1.624;2023-02-21T08:01:03;17.60;44.80
73121;DHT22;61307;49.628;-1.624;2023-02-21T08:03:31;17.70;44.80
73121;DHT22;61307;49.628;-1.624;2023-02-21T08:05:59;17.70;44.60
73121;DHT22;61307;49.628;-1.624;2023-02-21T08:08:26;17.80;44.50
73121;DHT22;61307;49.628;-1.624;2023-02-21T08:10:53;17.80;44.50
73121;DHT22;61307;49.628;-1.624;2023-02-21T08:13:20;17.90;44.50
73121;DHT22;61307;49.628;-1.624;2023-02-21T08:15:49;17.90;44.50
73121;DHT22;61307;49.628;-1.624;2023-02-21T08:18:17;18.00;44.50
73121;DHT22;61307;49.628;-1.624;2023-02-21T08:20:48;18.10;44.60
73121;DHT22;61307;49.628;-1.624;2023-02-21T08:23:17;18.10;44.60
73121;DHT22;61307;49.628;-1.624;2023-02-21T08:25:44;18.20;44.70
73121;DHT22;61307;49.628;-1.624;2023-02-21T08:28:11;18.20;44.70
73121;DHT22;61307;49.628;-1.624;2023-02-21T08:30:39;18.30;44.80
73121;DHT22;61307;49.628;-1.624;2023-02-21T08:33:08;18.30;44.80
73121;DHT22;61307;49.628;-1.624;2023-02-21T08:35:35;18.40;44.90
73121;DHT22;61307;49.628;-1.624;2023-02-21T08:38:03;18.40;44.80
73121;DHT22;61307;49.628;-1.624;2023-02-21T08:40:30;18.40;44.80
73121;DHT22;61307;49.628;-1.624;2023-02-21T08:42:58;18.40;44.80
73121;DHT22;61307;49.628;-1.624;2023-02-21T08:45:27;18.40;44.80
73121;DHT22;61307;49.628;-1.624;2023-02-21T08:47:55;18.40;44.80
73121;DHT22;61307;49.628;-1.624;2023-02-21T08:50:25;18.40;44.80
73121;DHT22;61307;49.628;-1.624;2023-02-21T08:52:52;18.50;44.90
73121;DHT22;61307;49.628;-1.624;2023-02-21T08:55:20;18.50;45.00
73121;DHT22;61307;49.628;-1.624;2023-02-21T08:57:48;18.50;45.00
73121;DHT22;61307;49.628;-1.624;2023-02-21T09:00:17;18.60;45.00
73121;DHT22;61307;49.628;-1.624;2023-02-21T09:02:44;18.60;45.00
73121;DHT22;61307;49.628;-1.624;2023-02-21T09:05:14;18.60;45.00
73121;DHT22;61307;49.628;-1.624;2023-02-21T09:07:43;18.60;45.00
73121;DHT22;61307;49.628;-1.624;2023-02-21T09:10:10;18.70;45.10
73121;DHT22;61307;49.628;-1.624;2023-02-21T09:12:38;18.70;45.00
73121;DHT22;61307;49.628;-1.624;2023-02-21T09:15:06;18.70;45.00
73121;DHT22;61307;49.628;-1.624;2023-02-21T09:17:34;18.70;45.00
73121;DHT22;61307;49.628;-1.624;2023-02-21T09:20:01;18.80;45.10
73121;DHT22;61307;49.628;-1.624;2023-02-21T09:22:31;18.80;45.00
73121;DHT22;61307;49.628;-1.624;2023-02-21T09:25:00;18.80;44.70
73121;DHT22;61307;49.628;-1.624;2023-02-21T09:27:28;18.70;44.80
73121;DHT22;61307;49.628;-1.624;2023-02-21T09:30:04;18.70;44.80
73121;DHT22;61307;49.628;-1.624;2023-02-21T09:32:32;18.80;45.00
73121;DHT22;61307;49.628;-1.624;2023-02-21T09:35:00;18.80;44.90
73121;DHT22;61307;49.628;-1.624;2023-02-21T09:37:27;18.90;45.00
73121;DHT22;61307;49.628;-1.624;2023-02-21T09:39:55;18.80;44.90
73121;DHT22;61307;49.628;-1.624;2023-02-21T09:42:29;18.80;44.90
73121;DHT22;61307;49.628;-1.624;2023-02-21T09:44:58;18.90;44.90
73121;DHT22;61307;49.628;-1.624;2023-02-21T09:47:36;18.90;44.80
73121;DHT22;61307;49.628;-1.624;2023-02-21T09:50:10;18.90;44.70
73121;DHT22;61307;49.628;-1.624;2023-02-21T09:52:39;19.00;44.70
73121;DHT22;61307;49.628;-1.624;2023-02-21T09:55:12;19.00;44.70
73121;DHT22;61307;49.628;-1.624;2023-02-21T09:57:42;19.00;44.70
73121;DHT22;61307;49.628;-1.624;2023-02-21T10:00:21;19.00;44.70
73121;DHT22;61307;49.628;-1.624;2023-02-21T10:02:56;19.00;44.70
73121;DHT22;61307;49.628;-1.624;2023-02-21T10:05:35;19.00;44.60
73121;DHT22;61307;49.628;-1.624;2023-02-21T10:08:14;19.00;44.70
73121;DHT22;61307;49.628;-1.624;2023-02-21T10:10:52;19.10;44.80
73121;DHT22;61307;49.628;-1.624;2023-02-21T10:13:33;19.00;44.70
73121;DHT22;61307;49.628;-1.624;2023-02-21T10:16:07;19.00;44.70
73121;DHT22;61307;49.628;-1.624;2023-02-21T10:18:40;19.00;44.60
73121;DHT22;61307;49.628;-1.624;2023-02-21T10:21:13;19.10;44.80
73121;DHT22;61307;49.628;-1.624;2023-02-21T10:23:44;19.00;44.80
73121;DHT22;61307;49.628;-1.624;2023-02-21T10:26:16;19.00;44.70
73121;DHT22;61307;49.628;-1.624;2023-02-21T10:28:45;19.10;44.80
73121;DHT22;61307;49.628;-1.624;2023-02-21T10:31:17;19.10;44.80
73121;DHT22;61307;49.628;-1.624;2023-02-21T10:33:46;19.10;44.70
73121;DHT22;61307;49.628;-1.624;2023-02-21T10:36:17;19.10;44.70
73121;DHT22;61307;49.628;-1.624;2023-02-21T10:38:52;19.10;44.60
73121;DHT22;61307;49.628;-1.624;2023-02-21T10:41:20;19.10;44.70
73121;DHT22;61307;49.628;-1.624;2023-02-21T10:43:52;19.10;44.70
73121;DHT22;61307;49.628;-1.624;2023-02-21T10:46:26;19.10;44.60
73121;DHT22;61307;49.628;-1.624;2023-02-21T10:48:59;19.10;44.60
73121;DHT22;61307;49.628;-1.624;2023-02-21T10:51:31;19.20;44.60
73121;DHT22;61307;49.628;-1.624;2023-02-21T10:54:17;19.20;44.50
73121;DHT22;61307;49.628;-1.624;2023-02-21T10:56:46;19.20;44.50
73121;DHT22;61307;49.628;-1.624;2023-02-21T10:59:21;19.30;44.60
73121;DHT22;61307;49.628;-1.624;2023-02-21T11:01:51;19.20;44.40
73121;DHT22;61307;49.628;-1.624;2023-02-21T11:04:29;19.20;44.40
73121;DHT22;61307;49.628;-1.624;2023-02-21T11:07:02;19.20;44.50
73121;DHT22;61307;49.628;-1.624;2023-02-21T11:09:39;19.20;44.60
73121;DHT22;61307;49.628;-1.624;2023-02-21T11:12:17;19.20;44.60
73121;DHT22;61307;49.628;-1.624;2023-02-21T11:15:04;19.20;44.60
73121;DHT22;61307;49.628;-1.624;2023-02-21T11:17:32;19.20;44.60
73121;DHT22;61307;49.628;-1.624;2023-02-21T11:20:04;19.20;44.50
73121;DHT22;61307;49.628;-1.624;2023-02-21T11:22:43;19.20;44.60
73121;DHT22;61307;49.628;-1.624;2023-02-21T11:25:19;19.20;44.50
73121;DHT22;61307;49.628;-1.624;2023-02-21T11:28:00;19.20;44.60
73121;DHT22;61307;49.628;-1.624;2023-02-21T11:30:31;19.20;44.60
73121;DHT22;61307;49.628;-1.624;2023-02-21T11:32:59;19.20;44.60
73121;DHT22;61307;49.628;-1.624;2023-02-21T11:35:29;19.20;44.60
73121;DHT22;61307;49.628;-1.624;2023-02-21T11:38:00;19.20;44.70
73121;DHT22;61307;49.628;-1.624;2023-02-21T11:40:32;19.20;44.70
73121;DHT22;61307;49.628;-1.624;2023-02-21T11:43:11;19.20;44.70
73121;DHT22;61307;49.628;-1.624;2023-02-21T11:45:45;19.20;44.70
73121;DHT22;61307;49.628;-1.624;2023-02-21T11:48:16;19.20;44.60
73121;DHT22;61307;49.628;-1.624;2023-02-21T11:50:48;19.20;44.70
73121;DHT22;61307;49.628;-1.624;2023-02-21T11:53:21;19.20;44.70
73121;DHT22;61307;49.628;-1.624;2023-02-21T11:55:54;19.30;44.70
73121;DHT22;61307;49.628;-1.624;2023-02-21T11:58:26;19.30;44.80
73121;DHT22;61307;49.628;-1.624;2023-02-21T12:01:01;19.30;45.40
73121;DHT22;61307;49.628;-1.624;2023-02-21T12:03:58;19.40;44.80
73121;DHT22;61307;49.628;-1.624;2023-02-21T12:06:33;19.40;44.90
73121;DHT22;61307;49.628;-1.624;2023-02-21T12:09:06;19.40;44.90
73121;DHT22;61307;49.628;-1.624;2023-02-21T12:11:45;19.40;45.00
73121;DHT22;61307;49.628;-1.624;2023-02-21T12:14:35;19.40;44.90
73121;DHT22;61307;49.628;-1.624;2023-02-21T12:17:51;19.40;44.80
73121;DHT22;61307;49.628;-1.624;2023-02-21T12:20:46;19.40;44.80
73121;DHT22;61307;49.628;-1.624;2023-02-21T12:23:22;19.40;44.80
73121;DHT22;61307;49.628;-1.624;2023-02-21T12:26:11;19.40;44.70
73121;DHT22;61307;49.628;-1.624;2023-02-21T12:28:53;19.40;44.70
73121;DHT22;61307;49.628;-1.624;2023-02-21T12:31:32;19.40;44.70
73121;DHT22;61307;49.628;-1.624;2023-02-21T12:34:14;19.40;44.70
73121;DHT22;61307;49.628;-1.624;2023-02-21T12:36:57;19.40;44.70
73121;DHT22;61307;49.628;-1.624;2023-02-21T12:39:42;19.40;44.80
73121;DHT22;61307;49.628;-1.624;2023-02-21T12:42:31;19.50;45.10
73121;DHT22;61307;49.628;-1.624;2023-02-21T12:45:20;19.60;45.00
73121;DHT22;61307;49.628;-1.624;2023-02-21T12:47:52;19.70;45.00
73121;DHT22;61307;49.628;-1.624;2023-02-21T12:50:26;19.70;45.00
73121;DHT22;61307;49.628;-1.624;2023-02-21T12:53:01;19.80;45.00
73121;DHT22;61307;49.628;-1.624;2023-02-21T12:55:32;19.80;44.90
73121;DHT22;61307;49.628;-1.624;2023-02-21T12:58:09;19.90;44.90
73121;DHT22;61307;49.628;-1.624;2023-02-21T13:00:40;19.90;44.80
73121;DHT22;61307;49.628;-1.624;2023-02-21T13:03:18;20.00;44.80
73121;DHT22;61307;49.628;-1.624;2023-02-21T13:05:53;19.90;44.80
73121;DHT22;61307;49.628;-1.624;2023-02-21T13:08:28;20.00;44.90
73121;DHT22;61307;49.628;-1.624;2023-02-21T13:11:03;19.90;44.90
73121;DHT22;61307;49.628;-1.624;2023-02-21T13:13:33;19.90;45.00
73121;DHT22;61307;49.628;-1.624;2023-02-21T13:16:03;19.90;45.10
73121;DHT22;61307;49.628;-1.624;2023-02-21T13:18:33;19.90;45.10
73121;DHT22;61307;49.628;-1.624;2023-02-21T13:21:19;19.90;45.10
73121;DHT22;61307;49.628;-1.624;2023-02-21T13:23:56;19.90;45.20
73121;DHT22;61307;49.628;-1.624;2023-02-21T13:27:12;19.80;45.20
73121;DHT22;61307;49.628;-1.624;2023-02-21T13:30:02;19.80;45.30
73121;DHT22;61307;49.628;-1.624;2023-02-21T13:32:38;19.70;45.30
73121;DHT22;61307;49.628;-1.624;2023-02-21T13:35:08;19.70;45.40
73121;DHT22;61307;49.628;-1.624;2023-02-21T13:37:45;19.80;46.20
73121;DHT22;61307;49.628;-1.624;2023-02-21T13:40:20;19.80;45.60
73121;DHT22;61307;49.628;-1.624;2023-02-21T13:43:02;19.80;45.60
73121;DHT22;61307;49.628;-1.624;2023-02-21T13:45:31;19.80;45.70
73121;DHT22;61307;49.628;-1.624;2023-02-21T13:48:26;19.80;45.70
73121;DHT22;61307;49.628;-1.624;2023-02-21T13:50:55;19.80;45.70
73121;DHT22;61307;49.628;-1.624;2023-02-21T13:53:26;19.90;46.30
73121;DHT22;61307;49.628;-1.624;2023-02-21T13:56:14;20.10;45.60
73121;DHT22;61307;49.628;-1.624;2023-02-21T13:58:42;20.10;45.30
73121;DHT22;61307;49.628;-1.624;2023-02-21T14:07:07;20.20;45.40
73121;DHT22;61307;49.628;-1.624;2023-02-21T14:09:39;20.20;45.40
73121;DHT22;61307;49.628;-1.624;2023-02-21T14:12:08;20.20;45.40
73121;DHT22;61307;49.628;-1.624;2023-02-21T14:14:38;20.20;45.50
73121;DHT22;61307;49.628;-1.624;2023-02-21T14:17:08;20.20;45.50
73121;DHT22;61307;49.628;-1.624;2023-02-21T14:19:41;20.20;45.50
73121;DHT22;61307;49.628;-1.624;2023-02-21T14:22:12;20.20;45.60
73121;DHT22;61307;49.628;-1.624;2023-02-21T14:24:45;20.20;46.30
73121;DHT22;61307;49.628;-1.624;2023-02-21T14:27:41;20.30;45.70
73121;DHT22;61307;49.628;-1.624;2023-02-21T14:30:32;20.30;45.60
73121;DHT22;61307;49.628;-1.624;2023-02-21T14:33:20;20.30;45.60
73121;DHT22;61307;49.628;-1.624;2023-02-21T14:35:56;20.30;45.70
73121;DHT22;61307;49.628;-1.624;2023-02-21T14:38:29;20.30;45.70
73121;DHT22;61307;49.628;-1.624;2023-02-21T14:44:02;20.30;45.60
73121;DHT22;61307;49.628;-1.624;2023-02-21T14:47:03;20.30;45.60
73121;DHT22;61307;49.628;-1.624;2023-02-21T14:52:51;20.40;45.60
73121;DHT22;61307;49.628;-1.624;2023-02-21T14:55:43;20.40;45.70
73121;DHT22;61307;49.628;-1.624;2023-02-21T15:01:44;20.40;45.70
73121;DHT22;61307;49.628;-1.624;2023-02-21T15:04:18;20.30;45.80
73121;DHT22;61307;49.628;-1.624;2023-02-21T15:06:58;20.40;45.80
73121;DHT22;61307;49.628;-1.624;2023-02-21T15:09:26;20.40;45.70
73121;DHT22;61307;49.628;-1.624;2023-02-21T15:11:53;20.40;45.90
73121;DHT22;61307;49.628;-1.624;2023-02-21T15:14:23;20.40;45.70
73121;DHT22;61307;49.628;-1.624;2023-02-21T15:16:54;20.40;46.40
73121;DHT22;61307;49.628;-1.624;2023-02-21T15:19:28;20.40;45.80
73121;DHT22;61307;49.628;-1.624;2023-02-21T15:22:17;20.40;45.90
73121;DHT22;61307;49.628;-1.624;2023-02-21T15:28:00;20.30;45.90
73121;DHT22;61307;49.628;-1.624;2023-02-21T15:30:32;20.30;46.20
73121;DHT22;61307;49.628;-1.624;2023-02-21T15:33:12;20.30;46.20
73121;DHT22;61307;49.628;-1.624;2023-02-21T15:35:43;20.30;46.20
73121;DHT22;61307;49.628;-1.624;2023-02-21T15:38:17;20.30;46.20
73121;DHT22;61307;49.628;-1.624;2023-02-21T15:40:47;20.40;46.30
73121;DHT22;61307;49.628;-1.624;2023-02-21T15:43:24;20.30;46.20
73121;DHT22;61307;49.628;-1.624;2023-02-21T15:45:53;20.30;46.20
73121;DHT22;61307;49.628;-1.624;2023-02-21T15:48:23;20.30;46.10
73121;DHT22;61307;49.628;-1.624;2023-02-21T15:50:53;20.30;46.20
73121;DHT22;61307;49.628;-1.624;2023-02-21T15:53:22;20.30;46.20
73121;DHT22;61307;49.628;-1.624;2023-02-21T15:55:51;20.30;46.20
73121;DHT22;61307;49.628;-1.624;2023-02-21T15:58:21;20.30;46.20
73121;DHT22;61307;49.628;-1.624;2023-02-21T16:01:02;20.30;46.20
73121;DHT22;61307;49.628;-1.624;2023-02-21T16:03:38;20.40;46.30
73121;DHT22;61307;49.628;-1.624;2023-02-21T16:06:21;20.40;46.40
73121;DHT22;61307;49.628;-1.624;2023-02-21T16:08:54;20.40;46.40
73121;DHT22;61307;49.628;-1.624;2023-02-21T16:11:42;20.40;46.40
73121;DHT22;61307;49.628;-1.624;2023-02-21T16:14:16;20.40;46.40
73121;DHT22;61307;49.628;-1.624;2023-02-21T16:16:43;20.40;46.40
73121;DHT22;61307;49.628;-1.624;2023-02-21T16:19:12;20.40;46.40
73121;DHT22;61307;49.628;-1.624;2023-02-21T16:21:40;20.40;46.40
73121;DHT22;61307;49.628;-1.624;2023-02-21T16:24:21;20.40;46.40
73121;DHT22;61307;49.628;-1.624;2023-02-21T16:27:02;20.40;46.50